createdAt,value
2019-01-14T00:01:32.271Z,63.40
2019-01-14T00:04:20.055Z,64.50
2019-01-14T00:07:07.828Z,64.50
2019-01-14T00:09:55.630Z,64.70
2019-01-14T00:12:43.475Z,64.70
2019-01-14T00:15:31.274Z,65.00
2019-01-14T00:18:19.039Z,65.00
2019-01-14T00:21:06.899Z,65.50
2019-01-14T00:23:54.695Z,65.20
2019-01-14T00:26:42.462Z,65.60
2019-01-14T00:29:30.264Z,65.30
2019-01-14T00:32:10.663Z,65.10
2019-01-14T00:34:51.064Z,64.90
2019-01-14T00:37:32.267Z,64.50
2019-01-14T00:40:12.899Z,64.60
2019-01-14T00:42:53.827Z,64.00
2019-01-14T00:45:34.301Z,63.60
2019-01-14T00:48:14.936Z,62.80
2019-01-14T00:50:55.571Z,63.00
2019-01-14T00:53:36.232Z,62.80
2019-01-14T00:56:16.587Z,62.40
2019-01-14T00:58:57.346Z,61.50
2019-01-14T01:01:38.115Z,60.80
2019-01-14T01:04:18.516Z,59.70
2019-01-14T01:06:59.501Z,59.70
2019-01-14T01:09:40.552Z,60.40
2019-01-14T01:12:21.058Z,59.70
2019-01-14T01:15:01.816Z,60.40
2019-01-14T01:17:42.766Z,61.30
2019-01-14T01:20:51.282Z,60.30
2019-01-14T01:23:39.057Z,61.50
2019-01-14T01:26:26.843Z,60.00
2019-01-14T01:29:14.778Z,61.70
2019-01-14T01:31:43.244Z,60.80
2019-01-14T01:34:31.019Z,61.80
2019-01-14T01:37:19.060Z,61.60
2019-01-14T01:40:27.810Z,61.70
2019-01-14T01:43:15.575Z,61.50
2019-01-14T01:46:03.382Z,61.40
2019-01-14T01:51:59.664Z,61.20
2019-01-14T01:54:28.127Z,61.10
2019-01-14T01:56:56.643Z,60.30
2019-01-14T01:59:44.433Z,60.60
2019-01-14T02:02:32.220Z,61.20
2019-01-14T02:05:20.251Z,60.90
2019-01-14T02:08:08.056Z,59.40
2019-01-14T02:10:55.843Z,59.40
2019-01-14T02:13:43.617Z,60.10
2019-01-14T02:19:26.147Z,60.10
2019-01-14T02:22:13.949Z,60.00
2019-01-14T02:25:01.733Z,60.00
2019-01-14T02:27:49.537Z,60.00
2019-01-14T02:30:37.316Z,59.80
2019-01-14T02:33:17.837Z,59.50
2019-01-14T02:35:59.092Z,59.80
2019-01-14T02:38:39.499Z,59.80
2019-01-14T02:44:02.345Z,59.70
2019-01-14T02:46:43.055Z,59.50
2019-01-14T02:49:23.751Z,59.70
2019-01-14T02:52:04.239Z,59.40
2019-01-14T02:54:44.950Z,59.90
2019-01-14T02:57:25.686Z,60.00
2019-01-14T03:00:06.396Z,59.70
2019-01-14T03:02:47.059Z,59.10
2019-01-14T03:05:27.484Z,59.70
2019-01-14T03:08:08.319Z,60.30
2019-01-14T03:10:49.112Z,60.00
2019-01-14T03:13:30.850Z,59.90
2019-01-14T03:16:11.628Z,60.00
2019-01-14T03:18:52.731Z,59.50
2019-01-14T03:21:32.983Z,59.60
2019-01-14T03:24:13.459Z,59.80
2019-01-14T03:26:53.797Z,59.50
2019-01-14T03:29:34.502Z,59.30
2019-01-14T03:32:15.085Z,59.40
2019-01-14T03:34:56.046Z,59.70
2019-01-14T03:37:37.043Z,59.60
2019-01-14T03:40:17.514Z,60.70
2019-01-14T03:42:58.275Z,60.60
2019-01-14T03:45:38.984Z,60.60
2019-01-14T03:48:19.970Z,59.90
2019-01-14T03:51:00.733Z,60.20
2019-01-14T03:53:41.432Z,60.30
2019-01-14T03:56:22.155Z,60.40
2019-01-14T03:59:02.771Z,60.50
2019-01-14T04:01:43.671Z,60.20
2019-01-14T04:04:24.703Z,60.60
2019-01-14T04:07:13.265Z,60.60
2019-01-14T04:09:48.266Z,60.60
2019-01-14T04:12:28.679Z,60.80
2019-01-14T04:15:09.314Z,60.80
2019-01-14T04:17:50.108Z,61.20
2019-01-14T04:20:30.898Z,61.10
2019-01-14T04:23:11.468Z,61.40
2019-01-14T04:25:52.207Z,61.20
2019-01-14T04:28:32.811Z,60.80
2019-01-14T04:31:13.574Z,61.40
2019-01-14T04:33:54.495Z,61.40
2019-01-14T04:36:35.048Z,61.40
2019-01-14T04:39:16.208Z,61.20
2019-01-14T04:41:56.878Z,60.80
2019-01-14T04:44:37.400Z,61.60
2019-01-14T04:47:18.151Z,61.60
2019-01-14T04:49:58.959Z,61.90
2019-01-14T04:52:39.675Z,61.90
2019-01-14T04:55:20.476Z,62.20
2019-01-14T05:00:44.479Z,62.70
2019-01-14T05:03:25.007Z,62.70
2019-01-14T05:06:05.756Z,63.00
2019-01-14T05:08:46.397Z,62.00
2019-01-14T05:11:27.269Z,62.60
2019-01-14T05:14:08.020Z,62.30
2019-01-14T05:16:48.645Z,62.40
2019-01-14T05:19:29.287Z,62.20
2019-01-14T05:22:10.228Z,62.40
2019-01-14T05:27:33.699Z,62.00
2019-01-14T05:30:14.263Z,63.00
2019-01-14T05:32:54.962Z,62.80
2019-01-14T05:35:35.505Z,63.00
2019-01-14T05:38:16.380Z,63.00
2019-01-14T05:40:44.813Z,63.20
2019-01-14T05:43:32.671Z,63.30
2019-01-14T05:46:20.461Z,62.60
2019-01-14T05:48:48.957Z,63.00
2019-01-14T05:51:36.742Z,63.40
2019-01-14T05:54:24.515Z,62.90
2019-01-14T05:57:12.302Z,62.80
2019-01-14T06:00:00.258Z,62.40
2019-01-14T06:02:49.668Z,63.30
2019-01-14T06:05:37.518Z,63.30
2019-01-14T06:08:25.309Z,63.40
2019-01-14T06:11:13.075Z,63.40
2019-01-14T06:14:00.876Z,63.40
2019-01-14T06:16:48.740Z,63.70
2019-01-14T06:22:45.028Z,63.40
2019-01-14T06:25:32.798Z,63.70
2019-01-14T06:28:20.596Z,63.60
2019-01-14T06:31:08.367Z,63.30
2019-01-14T06:33:48.715Z,63.20
2019-01-14T06:36:29.527Z,63.70
2019-01-14T06:39:10.103Z,63.60
2019-01-14T06:41:50.668Z,63.60
2019-01-14T06:44:31.276Z,63.80
2019-01-14T06:47:11.899Z,63.80
2019-01-14T06:49:52.292Z,63.60
2019-01-14T06:52:32.931Z,63.70
2019-01-14T06:55:13.415Z,63.20
2019-01-14T06:57:54.169Z,64.00
2019-01-14T07:00:35.075Z,64.70
2019-01-14T07:03:16.095Z,64.00
2019-01-14T07:05:56.541Z,64.30
2019-01-14T07:08:37.437Z,65.30
2019-01-14T07:11:18.356Z,65.70
2019-01-14T07:13:59.080Z,65.80
2019-01-14T07:16:39.849Z,66.20
2019-01-14T07:19:20.339Z,66.10
2019-01-14T07:22:01.094Z,66.20
2019-01-14T07:24:42.008Z,65.80
2019-01-14T07:27:22.556Z,65.60
2019-01-14T07:30:03.023Z,64.60
2019-01-14T07:32:31.458Z,64.80
2019-01-14T07:35:19.271Z,65.10
2019-01-14T07:43:43.784Z,63.70
2019-01-14T07:46:31.643Z,63.90
2019-01-14T07:49:19.556Z,64.30
2019-01-14T07:51:48.041Z,64.00
2019-01-14T07:54:35.859Z,64.00
2019-01-14T07:57:23.652Z,63.90
2019-01-14T08:00:12.977Z,63.70
2019-01-14T08:03:00.748Z,63.80
2019-01-14T08:05:48.527Z,63.60
2019-01-14T08:08:36.326Z,63.70
2019-01-14T08:11:24.111Z,63.60
2019-01-14T08:14:11.888Z,62.80
2019-01-14T08:16:59.685Z,63.40
2019-01-14T08:19:47.449Z,63.50
2019-01-14T08:22:35.265Z,63.60
2019-01-14T08:25:23.118Z,63.90
2019-01-14T08:28:10.888Z,64.20
2019-01-14T08:30:58.680Z,64.50
2019-01-14T08:33:39.715Z,64.70
2019-01-14T08:36:20.493Z,64.60
2019-01-14T08:39:01.075Z,64.30
2019-01-14T08:41:43.286Z,64.40
2019-01-14T08:47:07.436Z,64.00
2019-01-14T08:52:31.312Z,64.10
2019-01-14T08:55:11.888Z,63.90
2019-01-14T08:57:54.652Z,64.30
2019-01-14T09:00:35.283Z,64.10
2019-01-14T09:03:16.222Z,64.00
2019-01-14T09:05:57.056Z,64.20
2019-01-14T09:08:37.679Z,64.10
2019-01-14T09:11:18.422Z,63.60
2019-01-14T09:13:58.781Z,63.20
2019-01-14T09:16:39.479Z,63.60
2019-01-14T09:19:20.054Z,63.70
2019-01-14T09:22:00.648Z,62.00
2019-01-14T09:24:41.634Z,61.60
2019-01-14T09:27:22.593Z,62.60
2019-01-14T09:29:51.023Z,62.80
2019-01-14T09:32:31.515Z,63.30
2019-01-14T09:35:12.051Z,63.10
2019-01-14T09:37:52.936Z,63.60
2019-01-14T09:40:33.577Z,64.10
2019-01-14T09:43:14.108Z,64.50
2019-01-14T09:45:54.727Z,64.30
2019-01-14T09:48:35.279Z,64.10
2019-01-14T09:51:15.619Z,63.60
2019-01-14T09:53:56.436Z,63.20
2019-01-14T09:56:36.980Z,63.60
2019-01-14T09:59:18.243Z,64.10
2019-01-14T10:01:59.351Z,64.30
2019-01-14T10:04:40.098Z,64.20
2019-01-14T10:07:20.929Z,64.30
2019-01-14T10:10:02.548Z,64.20
2019-01-14T10:12:43.351Z,64.20
2019-01-14T10:15:24.019Z,63.80
2019-01-14T10:18:04.856Z,63.70
2019-01-14T10:20:45.332Z,62.40
2019-01-14T10:23:25.878Z,62.90
2019-01-14T10:26:06.820Z,62.80
2019-01-14T10:28:47.008Z,63.10
2019-01-14T10:31:27.632Z,62.90
2019-01-14T10:34:08.807Z,62.50
2019-01-14T10:36:50.012Z,62.90
2019-01-14T10:39:30.597Z,62.80
2019-01-14T10:42:11.272Z,62.70
2019-01-14T10:44:52.020Z,62.60
2019-01-14T10:47:32.772Z,62.60
2019-01-14T10:50:13.282Z,62.70
2019-01-14T10:52:53.768Z,61.30
2019-01-14T10:55:34.955Z,61.40
2019-01-14T11:00:58.727Z,61.30
2019-01-14T11:03:39.479Z,61.20
2019-01-14T11:06:20.051Z,61.10
2019-01-14T11:09:05.667Z,60.70
2019-01-14T11:11:43.345Z,60.80
2019-01-14T11:14:24.103Z,60.10
2019-01-14T11:17:04.656Z,61.00
2019-01-14T11:19:45.393Z,60.80
2019-01-14T11:22:26.031Z,61.20
2019-01-14T11:25:06.998Z,61.10
2019-01-14T11:27:47.306Z,60.90
2019-01-14T11:30:27.789Z,60.30
2019-01-14T11:33:08.279Z,60.40
2019-01-14T11:35:48.920Z,60.20
2019-01-14T11:38:29.501Z,59.80
2019-01-14T11:41:10.090Z,60.00
2019-01-14T11:43:51.019Z,59.60
2019-01-14T11:46:32.099Z,59.80
2019-01-14T11:49:12.607Z,59.90
2019-01-14T11:51:53.587Z,60.10
2019-01-14T11:54:33.804Z,59.80
2019-01-14T11:57:14.369Z,59.90
2019-01-14T11:59:55.367Z,59.90
2019-01-14T12:02:39.580Z,59.50
2019-01-14T12:05:17.709Z,59.70
2019-01-14T12:07:58.111Z,59.90
2019-01-14T12:10:38.663Z,60.40
2019-01-14T12:13:18.931Z,59.90
2019-01-14T12:15:59.835Z,59.80
2019-01-14T12:18:40.491Z,59.60
2019-01-14T12:21:21.012Z,59.80
2019-01-14T12:24:01.739Z,59.60
2019-01-14T12:26:42.661Z,59.30
2019-01-14T12:29:23.616Z,59.00
2019-01-14T12:32:04.886Z,58.50
2019-01-14T12:34:45.132Z,58.20
2019-01-14T12:37:26.179Z,58.30
2019-01-14T12:40:06.855Z,57.70
2019-01-14T12:42:47.575Z,57.90
2019-01-14T12:45:28.364Z,57.60
2019-01-14T12:48:09.229Z,57.50
2019-01-14T12:50:53.479Z,57.50
2019-01-14T12:53:34.495Z,57.60
2019-01-14T12:56:15.243Z,57.70
2019-01-14T12:58:56.023Z,57.70
2019-01-14T13:01:36.435Z,57.40
2019-01-14T13:04:17.203Z,57.20
2019-01-14T13:06:57.983Z,57.10
2019-01-14T13:09:38.643Z,56.80
2019-01-14T13:12:19.448Z,56.60
2019-01-14T13:15:00.353Z,56.40
2019-01-14T13:17:41.423Z,56.00
2019-01-14T13:20:22.047Z,56.00
2019-01-14T13:23:02.685Z,56.10
2019-01-14T13:25:43.522Z,55.80
2019-01-14T13:28:24.064Z,56.10
2019-01-14T13:31:04.294Z,55.90
2019-01-14T13:33:44.989Z,55.70
2019-01-14T13:36:25.524Z,55.70
2019-01-14T13:39:06.631Z,55.50
2019-01-14T13:41:46.946Z,54.90
2019-01-14T13:44:27.427Z,55.30
2019-01-14T13:47:08.483Z,54.90
2019-01-14T13:49:49.623Z,55.10
2019-01-14T13:52:30.519Z,55.10
2019-01-14T13:55:12.135Z,54.80
2019-01-14T13:57:53.061Z,54.80
2019-01-14T14:00:33.790Z,54.90
2019-01-14T14:03:14.195Z,54.70
2019-01-14T14:05:54.759Z,53.60
2019-01-14T14:08:35.620Z,54.50
2019-01-14T14:11:16.175Z,54.60
2019-01-14T14:13:56.915Z,54.10
2019-01-14T14:16:37.657Z,54.00
2019-01-14T14:19:18.782Z,54.10
2019-01-14T14:21:59.017Z,53.90
2019-01-14T14:24:39.736Z,54.30
2019-01-14T14:30:04.021Z,53.70
2019-01-14T14:35:27.643Z,52.50
2019-01-14T14:38:08.316Z,53.30
2019-01-14T14:40:49.196Z,53.30
2019-01-14T14:43:29.895Z,53.30
2019-01-14T14:46:10.439Z,53.30
2019-01-14T14:48:51.131Z,53.00
2019-01-14T14:51:32.003Z,53.60
2019-01-14T14:54:12.459Z,53.20
2019-01-14T14:56:53.418Z,53.30
2019-01-14T14:59:34.630Z,53.20
2019-01-14T15:02:14.963Z,53.20
2019-01-14T15:04:55.723Z,53.20
2019-01-14T15:07:35.880Z,53.20
2019-01-14T15:10:16.800Z,53.00
2019-01-14T15:12:57.504Z,53.10
2019-01-14T15:15:38.420Z,53.10
2019-01-14T15:18:19.436Z,53.30
2019-01-14T15:21:00.244Z,53.50
2019-01-14T15:23:41.014Z,53.30
2019-01-14T15:26:21.878Z,53.60
2019-01-14T15:29:02.738Z,53.70
2019-01-14T15:31:43.774Z,54.70
2019-01-14T15:34:24.511Z,54.60
2019-01-14T15:39:39.800Z,55.20
2019-01-14T15:42:42.101Z,55.40
2019-01-14T15:45:37.928Z,53.90
2019-01-14T15:48:25.736Z,54.70
2019-01-14T15:51:13.535Z,54.70
2019-01-14T15:54:01.355Z,54.70
2019-01-14T15:56:49.168Z,54.50
2019-01-14T15:59:36.977Z,54.60
2019-01-14T16:02:24.751Z,55.00
2019-01-14T16:05:12.621Z,54.30
2019-01-14T16:08:00.465Z,54.70
2019-01-14T16:10:48.259Z,55.30
2019-01-14T16:13:36.038Z,55.50
2019-01-14T16:16:24.212Z,55.10
2019-01-14T16:19:11.989Z,55.50
2019-01-14T16:21:59.785Z,55.40
2019-01-14T16:24:47.659Z,55.20
2019-01-14T16:27:35.424Z,55.60
2019-01-14T16:30:23.790Z,55.30
2019-01-14T16:33:04.286Z,55.10
2019-01-14T16:35:45.335Z,55.10
2019-01-14T16:38:13.763Z,56.40
2019-01-14T16:41:01.560Z,56.00
2019-01-14T16:43:49.331Z,55.20
2019-01-14T16:46:37.122Z,56.10
2019-01-14T16:49:25.324Z,55.90
2019-01-14T16:52:14.993Z,55.60
2019-01-14T16:54:43.427Z,55.90
2019-01-14T16:57:31.218Z,56.30
2019-01-14T17:00:19.070Z,56.40
2019-01-14T17:03:06.975Z,56.30
2019-01-14T17:05:54.783Z,56.00
2019-01-14T17:08:42.567Z,55.20
2019-01-14T17:11:30.348Z,55.90
2019-01-14T17:14:18.124Z,55.60
2019-01-14T17:17:05.915Z,55.70
2019-01-14T17:19:53.687Z,55.70
2019-01-14T17:22:41.493Z,55.80
2019-01-14T17:25:29.259Z,55.60
2019-01-14T17:28:17.063Z,55.80
2019-01-14T17:31:04.852Z,55.00
2019-01-14T17:33:45.243Z,55.80
2019-01-14T17:39:09.240Z,55.80
2019-01-14T17:41:50.968Z,54.40
2019-01-14T17:44:31.864Z,55.10
2019-01-14T17:47:13.548Z,55.50
2019-01-14T17:49:54.130Z,55.70
2019-01-14T17:52:34.742Z,55.60
2019-01-14T17:55:15.747Z,55.60
2019-01-14T17:57:56.684Z,55.80
2019-01-14T18:00:37.575Z,55.60
2019-01-14T18:03:18.631Z,55.50
2019-01-14T18:05:59.172Z,56.40
2019-01-14T18:08:39.833Z,55.70
2019-01-14T18:11:20.727Z,55.90
2019-01-14T18:14:01.592Z,55.80
2019-01-14T18:19:25.720Z,55.80
2019-01-14T18:22:06.431Z,56.10
2019-01-14T18:24:47.671Z,55.90
2019-01-14T18:27:28.303Z,56.10
2019-01-14T18:30:08.934Z,56.20
2019-01-14T18:32:49.633Z,56.00
2019-01-14T18:38:13.580Z,55.80
2019-01-14T18:40:54.039Z,55.40
2019-01-14T18:43:34.947Z,56.00
2019-01-14T18:46:15.658Z,56.50
2019-01-14T18:48:56.614Z,56.10
2019-01-14T18:51:37.399Z,56.40
2019-01-14T18:54:18.040Z,56.40
2019-01-14T18:56:58.723Z,56.40
2019-01-14T18:59:39.235Z,56.50
2019-01-14T19:02:19.800Z,56.40
2019-01-14T19:05:00.418Z,56.10
2019-01-14T19:07:41.912Z,56.40
2019-01-14T19:10:22.590Z,56.30
2019-01-14T19:13:03.215Z,56.90
2019-01-14T19:18:26.769Z,55.70
2019-01-14T19:21:07.159Z,56.30
2019-01-14T19:23:48.125Z,56.30
2019-01-14T19:26:28.824Z,56.10
2019-01-14T19:29:09.707Z,55.90
2019-01-14T19:31:50.295Z,56.00
2019-01-14T19:34:30.729Z,56.10
2019-01-14T19:37:11.520Z,55.60
2019-01-14T19:39:52.027Z,55.60
2019-01-14T19:42:32.865Z,56.20
2019-01-14T19:45:13.638Z,56.10
2019-01-14T19:47:54.543Z,56.40
2019-01-14T19:50:35.291Z,56.00
2019-01-14T19:53:15.830Z,56.30
2019-01-14T19:55:56.357Z,56.60
2019-01-14T19:58:36.799Z,56.60
2019-01-14T20:01:17.693Z,56.30
2019-01-14T20:03:58.279Z,56.30
2019-01-14T20:09:22.093Z,56.00
2019-01-14T20:12:02.943Z,56.60
2019-01-14T20:14:43.484Z,56.90
2019-01-14T20:17:24.231Z,56.60
2019-01-14T20:20:04.492Z,56.50
2019-01-14T20:25:28.220Z,57.00
2019-01-14T20:28:09.145Z,56.90
2019-01-14T20:30:49.676Z,56.90
2019-01-14T20:39:44.010Z,56.20
2019-01-14T20:42:24.639Z,57.60
2019-01-14T20:45:06.274Z,57.20
2019-01-14T20:47:47.182Z,56.30
2019-01-14T20:50:27.858Z,57.30
2019-01-14T20:53:13.622Z,56.80
2019-01-14T20:55:50.570Z,57.50
2019-01-14T20:58:31.231Z,57.60
2019-01-14T21:01:11.738Z,57.50
2019-01-14T21:03:52.432Z,57.50
2019-01-14T21:06:33.403Z,57.10
2019-01-14T21:09:14.312Z,57.70
2019-01-14T21:11:54.821Z,57.90
2019-01-14T21:14:35.876Z,57.80
2019-01-14T21:17:16.275Z,58.50
2019-01-14T21:19:57.279Z,57.80
2019-01-14T21:25:20.964Z,58.10
2019-01-14T21:28:02.105Z,57.10
2019-01-14T21:30:44.241Z,57.60
2019-01-14T21:33:25.215Z,57.50
2019-01-14T21:35:53.662Z,58.10
2019-01-14T21:38:41.438Z,57.80
2019-01-14T21:41:31.476Z,57.70
2019-01-14T21:44:18.792Z,56.80
2019-01-14T21:47:06.590Z,57.30
2019-01-14T21:49:35.019Z,58.30
2019-01-14T21:52:22.827Z,57.60
2019-01-14T21:55:31.353Z,57.70
2019-01-14T21:58:19.115Z,57.40
2019-01-14T22:01:07.042Z,57.10
2019-01-14T22:03:54.839Z,57.40
2019-01-14T22:06:42.631Z,57.50
2019-01-14T22:09:30.469Z,57.70
2019-01-14T22:12:18.260Z,57.80
2019-01-14T22:15:26.799Z,57.80
2019-01-14T22:18:14.566Z,57.80
2019-01-14T22:21:02.356Z,57.80
2019-01-14T22:23:50.115Z,57.80
2019-01-14T22:26:37.911Z,57.10
2019-01-14T22:29:25.684Z,57.80
2019-01-14T22:32:07.058Z,57.70
2019-01-14T22:34:47.836Z,57.60
2019-01-14T22:37:28.866Z,57.60
2019-01-14T22:40:09.152Z,56.90
2019-01-14T22:42:49.660Z,57.00
2019-01-14T22:48:13.384Z,57.20
2019-01-14T22:50:54.104Z,57.00
2019-01-14T22:53:34.913Z,57.20
2019-01-14T22:58:58.362Z,57.00
2019-01-14T23:01:39.219Z,57.10
2019-01-14T23:04:19.967Z,57.40
2019-01-14T23:07:00.643Z,57.50
2019-01-14T23:09:41.491Z,57.60
2019-01-14T23:12:22.040Z,58.20
2019-01-14T23:15:02.507Z,57.90
2019-01-14T23:17:43.169Z,57.30
2019-01-14T23:20:23.826Z,57.20
2019-01-14T23:23:04.859Z,57.40
2019-01-14T23:25:45.355Z,57.10
2019-01-14T23:28:13.807Z,57.50
2019-01-14T23:31:01.567Z,57.30
2019-01-14T23:33:49.358Z,56.40
2019-01-14T23:36:37.132Z,57.20
2019-01-14T23:39:24.929Z,58.00
2019-01-14T23:42:12.703Z,57.80
2019-01-14T23:45:00.495Z,57.50
2019-01-14T23:47:48.274Z,57.10
2019-01-14T23:50:36.076Z,57.90
2019-01-14T23:53:24.082Z,57.60
2019-01-14T23:56:11.879Z,57.30
2019-01-14T23:58:59.678Z,57.40
